sensor_id;sensor_type;location;lat;lon;timestamp;pressure;altitude;pressure_sealevel;temperature;humidity
63691;BME280;49837;57.280;27.070;2023-03-18T00:00:44;101268.23;;;0.85;57.79
63691;BME280;49837;57.280;27.070;2023-03-18T00:01:45;101266.67;;;0.86;58.38
63691;BME280;49837;57.280;27.070;2023-03-18T00:02:46;101268.48;;;0.85;57.87
63691;BME280;49837;57.280;27.070;2023-03-18T00:03:47;101263.72;;;0.85;57.9
63691;BME280;49837;57.280;27.070;2023-03-18T00:04:45;101263.72;;;0.89;57.46
63691;BME280;49837;57.280;27.070;2023-03-18T00:05:46;101263.36;;;0.91;57.76
63691;BME280;49837;57.280;27.070;2023-03-18T00:06:46;101262.7;;;0.9;57.72
63691;BME280;49837;57.280;27.070;2023-03-18T00:07:46;101264.2;;;0.89;57.48
63691;BME280;49837;57.280;27.070;2023-03-18T00:08:48;101261.96;;;0.88;58.05
63691;BME280;49837;57.280;27.070;2023-03-18T00:09:47;101267.96;;;0.87;57.95
63691;BME280;49837;57.280;27.070;2023-03-18T00:10:49;101263.28;;;0.88;57.52
63691;BME280;49837;57.280;27.070;2023-03-18T00:11:48;101263.63;;;0.89;58.08
63691;BME280;49837;57.280;27.070;2023-03-18T00:12:48;101261.52;;;0.86;58.15
63691;BME280;49837;57.280;27.070;2023-03-18T00:13:49;101267.09;;;0.88;57.75
63691;BME280;49837;57.280;27.070;2023-03-18T00:14:49;101262.82;;;0.95;57.36
63691;BME280;49837;57.280;27.070;2023-03-18T00:15:50;101260.22;;;0.93;57.74
63691;BME280;49837;57.280;27.070;2023-03-18T00:16:50;101262.47;;;0.97;56.95
63691;BME280;49837;57.280;27.070;2023-03-18T00:17:50;101258.5;;;0.96;57.22
63691;BME280;49837;57.280;27.070;2023-03-18T00:18:50;101262.08;;;0.98;56.92
63691;BME280;49837;57.280;27.070;2023-03-18T00:19:51;101263.31;;;0.98;57.38
63691;BME280;49837;57.280;27.070;2023-03-18T00:20:51;101260.91;;;0.97;57.03
63691;BME280;49837;57.280;27.070;2023-03-18T00:21:51;101258.98;;;0.96;57.33
63691;BME280;49837;57.280;27.070;2023-03-18T00:22:51;101260.44;;;0.95;57.45
63691;BME280;49837;57.280;27.070;2023-03-18T00:23:52;101258.03;;;0.94;57.67
63691;BME280;49837;57.280;27.070;2023-03-18T00:24:52;101257.12;;;0.94;57.37
63691;BME280;49837;57.280;27.070;2023-03-18T00:25:54;101257.67;;;0.96;57.35
63691;BME280;49837;57.280;27.070;2023-03-18T00:26:56;101261.54;;;0.99;57.16
63691;BME280;49837;57.280;27.070;2023-03-18T00:27:53;101259.34;;;1.01;57.35
63691;BME280;49837;57.280;27.070;2023-03-18T00:28:55;101258.52;;;0.97;57.67
63691;BME280;49837;57.280;27.070;2023-03-18T00:29:54;101262.62;;;0.97;57.39
63691;BME280;49837;57.280;27.070;2023-03-18T00:30:54;101258.8;;;0.98;57.71
63691;BME280;49837;57.280;27.070;2023-03-18T00:31:56;101262.91;;;0.98;57.37
63691;BME280;49837;57.280;27.070;2023-03-18T00:32:55;101259.23;;;0.96;57.16
63691;BME280;49837;57.280;27.070;2023-03-18T00:33:55;101261.42;;;0.95;57.49
63691;BME280;49837;57.280;27.070;2023-03-18T00:34:56;101261.73;;;0.96;57.58
63691;BME280;49837;57.280;27.070;2023-03-18T00:35:56;101259.52;;;1.0;57.3
63691;BME280;49837;57.280;27.070;2023-03-18T00:36:56;101259.92;;;0.96;57.56
63691;BME280;49837;57.280;27.070;2023-03-18T00:37:57;101260.66;;;0.94;57.44
63691;BME280;49837;57.280;27.070;2023-03-18T00:38:57;101261.06;;;0.91;58.02
63691;BME280;49837;57.280;27.070;2023-03-18T00:40:03;101259.61;;;0.88;57.8
63691;BME280;49837;57.280;27.070;2023-03-18T00:41:01;101265.72;;;0.92;57.49
63691;BME280;49837;57.280;27.070;2023-03-18T00:42:01;101263.36;;;0.9;57.57
63691;BME280;49837;57.280;27.070;2023-03-18T00:43:02;101261.83;;;0.88;58.07
63691;BME280;49837;57.280;27.070;2023-03-18T00:44:02;101258.12;;;0.82;57.94
63691;BME280;49837;57.280;27.070;2023-03-18T00:45:03;101260.17;;;0.83;57.77
63691;BME280;49837;57.280;27.070;2023-03-18T00:46:03;101254.95;;;0.83;57.77
63691;BME280;49837;57.280;27.070;2023-03-18T00:47:03;101254.97;;;0.78;58.25
63691;BME280;49837;57.280;27.070;2023-03-18T00:48:03;101259.07;;;0.74;58.44
63691;BME280;49837;57.280;27.070;2023-03-18T00:49:06;101256.66;;;0.7;58.48
63691;BME280;49837;57.280;27.070;2023-03-18T00:50:05;101254.95;;;0.68;58.56
63691;BME280;49837;57.280;27.070;2023-03-18T00:51:04;101254.78;;;0.65;58.63
63691;BME280;49837;57.280;27.070;2023-03-18T00:52:05;101253.82;;;0.63;58.88
63691;BME280;49837;57.280;27.070;2023-03-18T00:53:05;101253.13;;;0.62;58.73
63691;BME280;49837;57.280;27.070;2023-03-18T00:54:07;101255.85;;;0.65;58.45
63691;BME280;49837;57.280;27.070;2023-03-18T00:55:07;101252.48;;;0.65;58.32
63691;BME280;49837;57.280;27.070;2023-03-18T00:56:06;101253.42;;;0.66;58.49
63691;BME280;49837;57.280;27.070;2023-03-18T00:57:07;101253.97;;;0.65;58.45
63691;BME280;49837;57.280;27.070;2023-03-18T00:58:08;101250.62;;;0.66;58.33
63691;BME280;49837;57.280;27.070;2023-03-18T00:59:07;101253.06;;;0.68;57.9
63691;BME280;49837;57.280;27.070;2023-03-18T01:00:08;101251.2;;;0.66;58.3
63691;BME280;49837;57.280;27.070;2023-03-18T01:01:08;101253.66;;;0.66;58.22
63691;BME280;49837;57.280;27.070;2023-03-18T01:02:08;101249.98;;;0.61;58.59
63691;BME280;49837;57.280;27.070;2023-03-18T01:03:08;101254.2;;;0.62;58.15
63691;BME280;49837;57.280;27.070;2023-03-18T01:04:10;101250.41;;;0.68;58.09
63691;BME280;49837;57.280;27.070;2023-03-18T01:05:12;101253.47;;;0.65;58.11
63691;BME280;49837;57.280;27.070;2023-03-18T01:06:11;101255.52;;;0.65;58.19
63691;BME280;49837;57.280;27.070;2023-03-18T01:07:10;101255.88;;;0.67;58.0
63691;BME280;49837;57.280;27.070;2023-03-18T01:08:10;101257.33;;;0.65;58.09
63691;BME280;49837;57.280;27.070;2023-03-18T01:09:11;101257.16;;;0.62;57.89
63691;BME280;49837;57.280;27.070;2023-03-18T01:10:12;101261.52;;;0.65;57.96
63691;BME280;49837;57.280;27.070;2023-03-18T01:11:11;101256.65;;;0.68;57.78
63691;BME280;49837;57.280;27.070;2023-03-18T01:12:12;101266.64;;;0.69;57.66
63691;BME280;49837;57.280;27.070;2023-03-18T01:13:12;101263.41;;;0.65;58.36
63691;BME280;49837;57.280;27.070;2023-03-18T01:14:12;101262.8;;;0.64;58.25
63691;BME280;49837;57.280;27.070;2023-03-18T01:15:16;101263.92;;;0.63;58.3
63691;BME280;49837;57.280;27.070;2023-03-18T01:16:14;101265.83;;;0.61;58.89
63691;BME280;49837;57.280;27.070;2023-03-18T01:17:14;101266.86;;;0.57;59.02
63691;BME280;49837;57.280;27.070;2023-03-18T01:18:15;101266.67;;;0.56;58.69
63691;BME280;49837;57.280;27.070;2023-03-18T01:19:15;101263.31;;;0.59;58.34
63691;BME280;49837;57.280;27.070;2023-03-18T01:20:18;101267.09;;;0.62;57.96
63691;BME280;49837;57.280;27.070;2023-03-18T01:21:16;101259.58;;;0.66;57.95
63691;BME280;49837;57.280;27.070;2023-03-18T01:22:17;101263.14;;;0.67;58.08
63691;BME280;49837;57.280;27.070;2023-03-18T01:23:17;101262.45;;;0.66;58.09
63691;BME280;49837;57.280;27.070;2023-03-18T01:24:17;101266.71;;;0.63;58.07
63691;BME280;49837;57.280;27.070;2023-03-18T01:25:18;101260.31;;;0.54;58.81
63691;BME280;49837;57.280;27.070;2023-03-18T01:26:18;101261.06;;;0.62;58.2
63691;BME280;49837;57.280;27.070;2023-03-18T01:27:18;101260.2;;;0.69;58.06
63691;BME280;49837;57.280;27.070;2023-03-18T01:28:19;101264.8;;;0.62;58.57
63691;BME280;49837;57.280;27.070;2023-03-18T01:29:19;101264.19;;;0.61;58.34
63691;BME280;49837;57.280;27.070;2023-03-18T01:30:19;101263.45;;;0.61;58.25
63691;BME280;49837;57.280;27.070;2023-03-18T01:31:20;101262.0;;;0.62;58.46
63691;BME280;49837;57.280;27.070;2023-03-18T01:32:20;101255.56;;;0.73;57.56
63691;BME280;49837;57.280;27.070;2023-03-18T01:33:20;101261.48;;;0.76;57.36
63691;BME280;49837;57.280;27.070;2023-03-18T01:34:21;101263.26;;;0.75;57.72
63691;BME280;49837;57.280;27.070;2023-03-18T01:35:22;101261.88;;;0.7;57.8
63691;BME280;49837;57.280;27.070;2023-03-18T01:36:21;101264.27;;;0.73;57.57
63691;BME280;49837;57.280;27.070;2023-03-18T01:37:22;101259.2;;;0.74;57.28
63691;BME280;49837;57.280;27.070;2023-03-18T01:38:23;101260.82;;;0.72;57.36
63691;BME280;49837;57.280;27.070;2023-03-18T01:39:25;101265.94;;;0.7;58.37
63691;BME280;49837;57.280;27.070;2023-03-18T01:40:25;101260.4;;;0.66;58.08
63691;BME280;49837;57.280;27.070;2023-03-18T01:41:24;101265.38;;;0.69;58.25
63691;BME280;49837;57.280;27.070;2023-03-18T01:42:27;101259.66;;;0.66;58.16
63691;BME280;49837;57.280;27.070;2023-03-18T01:43:30;101257.67;;;0.72;57.71
63691;BME280;49837;57.280;27.070;2023-03-18T01:44:28;101258.28;;;0.79;57.17
63691;BME280;49837;57.280;27.070;2023-03-18T01:45:28;101260.75;;;0.82;57.27
63691;BME280;49837;57.280;27.070;2023-03-18T01:47:37;101261.67;;;0.73;57.85
63691;BME280;49837;57.280;27.070;2023-03-18T01:48:38;101261.76;;;0.77;57.75
63691;BME280;49837;57.280;27.070;2023-03-18T01:49:44;101261.66;;;0.83;56.93
63691;BME280;49837;57.280;27.070;2023-03-18T01:50:44;101265.19;;;0.85;57.23
63691;BME280;49837;57.280;27.070;2023-03-18T01:52:48;101262.19;;;0.71;57.99
63691;BME280;49837;57.280;27.070;2023-03-18T01:53:48;101268.41;;;0.65;58.11
63691;BME280;49837;57.280;27.070;2023-03-18T01:54:55;101260.72;;;0.66;57.48
63691;BME280;49837;57.280;27.070;2023-03-18T01:55:49;101266.05;;;0.72;57.37
63691;BME280;49837;57.280;27.070;2023-03-18T01:56:49;101263.53;;;0.76;57.67
63691;BME280;49837;57.280;27.070;2023-03-18T01:57:50;101261.97;;;0.76;57.69
63691;BME280;49837;57.280;27.070;2023-03-18T01:58:53;101263.39;;;0.74;57.35
63691;BME280;49837;57.280;27.070;2023-03-18T01:59:52;101261.21;;;0.78;57.22
63691;BME280;49837;57.280;27.070;2023-03-18T02:00:56;101262.72;;;0.82;56.81
63691;BME280;49837;57.280;27.070;2023-03-18T02:03:00;101268.14;;;0.79;57.41
63691;BME280;49837;57.280;27.070;2023-03-18T02:04:03;101265.95;;;0.77;57.97
63691;BME280;49837;57.280;27.070;2023-03-18T02:05:04;101272.23;;;0.76;57.6
63691;BME280;49837;57.280;27.070;2023-03-18T02:06:03;101267.86;;;0.75;57.31
63691;BME280;49837;57.280;27.070;2023-03-18T02:07:04;101269.67;;;0.78;57.36
63691;BME280;49837;57.280;27.070;2023-03-18T02:08:04;101268.16;;;0.77;57.26
63691;BME280;49837;57.280;27.070;2023-03-18T02:09:04;101270.54;;;0.73;57.73
63691;BME280;49837;57.280;27.070;2023-03-18T02:10:09;101268.06;;;0.67;58.43
63691;BME280;49837;57.280;27.070;2023-03-18T02:11:08;101262.91;;;0.65;57.85
63691;BME280;49837;57.280;27.070;2023-03-18T02:12:11;101265.17;;;0.76;57.37
63691;BME280;49837;57.280;27.070;2023-03-18T02:13:09;101262.53;;;0.81;57.34
63691;BME280;49837;57.280;27.070;2023-03-18T02:14:12;101259.44;;;0.79;57.34
63691;BME280;49837;57.280;27.070;2023-03-18T02:15:14;101261.09;;;0.74;57.85
63691;BME280;49837;57.280;27.070;2023-03-18T02:16:20;101256.3;;;0.72;57.15
63691;BME280;49837;57.280;27.070;2023-03-18T02:17:17;101258.91;;;0.74;57.31
63691;BME280;49837;57.280;27.070;2023-03-18T02:18:20;101258.12;;;0.76;57.4
63691;BME280;49837;57.280;27.070;2023-03-18T02:22:34;101258.98;;;0.71;57.11
63691;BME280;49837;57.280;27.070;2023-03-18T02:27:45;101258.88;;;0.7;57.25
63691;BME280;49837;57.280;27.070;2023-03-18T02:28:44;101259.83;;;0.7;57.89
63691;BME280;49837;57.280;27.070;2023-03-18T02:29:44;101262.01;;;0.65;58.42
63691;BME280;49837;57.280;27.070;2023-03-18T02:30:49;101256.65;;;0.68;57.55
63691;BME280;49837;57.280;27.070;2023-03-18T02:31:48;101260.38;;;0.71;57.76
63691;BME280;49837;57.280;27.070;2023-03-18T02:32:50;101257.58;;;0.69;57.92
63691;BME280;49837;57.280;27.070;2023-03-18T02:33:49;101262.58;;;0.65;57.93
63691;BME280;49837;57.280;27.070;2023-03-18T02:34:49;101258.7;;;0.64;57.59
63691;BME280;49837;57.280;27.070;2023-03-18T02:36:51;101261.08;;;0.68;57.98
63691;BME280;49837;57.280;27.070;2023-03-18T02:37:52;101260.66;;;0.61;58.25
63691;BME280;49837;57.280;27.070;2023-03-18T02:38:52;101259.77;;;0.52;58.35
63691;BME280;49837;57.280;27.070;2023-03-18T02:39:52;101255.22;;;0.51;57.85
63691;BME280;49837;57.280;27.070;2023-03-18T02:40:53;101259.8;;;0.49;58.7
63691;BME280;49837;57.280;27.070;2023-03-18T02:41:53;101263.78;;;0.49;58.27
63691;BME280;49837;57.280;27.070;2023-03-18T02:42:53;101263.0;;;0.57;57.6
63691;BME280;49837;57.280;27.070;2023-03-18T02:43:55;101264.57;;;0.59;57.76
63691;BME280;49837;57.280;27.070;2023-03-18T02:44:54;101266.02;;;0.62;57.24
63691;BME280;49837;57.280;27.070;2023-03-18T02:47:01;101267.95;;;0.63;57.8
63691;BME280;49837;57.280;27.070;2023-03-18T02:48:01;101265.47;;;0.56;58.03
63691;BME280;49837;57.280;27.070;2023-03-18T02:49:02;101269.28;;;0.52;58.13
63691;BME280;49837;57.280;27.070;2023-03-18T02:50:01;101265.84;;;0.44;58.35
63691;BME280;49837;57.280;27.070;2023-03-18T02:51:02;101262.98;;;0.42;58.85
63691;BME280;49837;57.280;27.070;2023-03-18T02:52:02;101267.62;;;0.47;58.57
63691;BME280;49837;57.280;27.070;2023-03-18T02:53:04;101263.12;;;0.52;58.06
63691;BME280;49837;57.280;27.070;2023-03-18T02:54:15;101268.64;;;0.56;57.96
63691;BME280;49837;57.280;27.070;2023-03-18T02:55:03;101264.3;;;0.51;58.38
63691;BME280;49837;57.280;27.070;2023-03-18T02:56:04;101269.1;;;0.46;58.46
63691;BME280;49837;57.280;27.070;2023-03-18T02:57:03;101268.55;;;0.44;58.48
63691;BME280;49837;57.280;27.070;2023-03-18T02:58:04;101266.48;;;0.46;58.61
63691;BME280;49837;57.280;27.070;2023-03-18T02:59:04;101266.39;;;0.46;58.48
63691;BME280;49837;57.280;27.070;2023-03-18T03:00:05;101263.09;;;0.43;58.97
63691;BME280;49837;57.280;27.070;2023-03-18T03:01:05;101265.78;;;0.42;58.56
63691;BME280;49837;57.280;27.070;2023-03-18T03:02:05;101267.12;;;0.47;58.04
63691;BME280;49837;57.280;27.070;2023-03-18T03:03:05;101264.09;;;0.43;58.66
63691;BME280;49837;57.280;27.070;2023-03-18T03:04:06;101257.66;;;0.37;58.77
63691;BME280;49837;57.280;27.070;2023-03-18T03:05:06;101262.59;;;0.4;58.94
63691;BME280;49837;57.280;27.070;2023-03-18T03:06:07;101255.69;;;0.41;58.46
63691;BME280;49837;57.280;27.070;2023-03-18T03:07:07;101259.36;;;0.44;58.47
63691;BME280;49837;57.280;27.070;2023-03-18T03:08:07;101256.85;;;0.48;58.29
63691;BME280;49837;57.280;27.070;2023-03-18T03:09:09;101259.53;;;0.51;58.48
63691;BME280;49837;57.280;27.070;2023-03-18T03:10:09;101256.3;;;0.49;58.09
63691;BME280;49837;57.280;27.070;2023-03-18T03:11:08;101260.07;;;0.47;58.54
63691;BME280;49837;57.280;27.070;2023-03-18T03:12:09;101256.52;;;0.48;58.11
63691;BME280;49837;57.280;27.070;2023-03-18T03:13:09;101255.7;;;0.48;58.36
63691;BME280;49837;57.280;27.070;2023-03-18T03:14:10;101252.3;;;0.47;58.19
63691;BME280;49837;57.280;27.070;2023-03-18T03:15:10;101253.45;;;0.47;58.07
63691;BME280;49837;57.280;27.070;2023-03-18T03:16:11;101253.45;;;0.43;58.64
63691;BME280;49837;57.280;27.070;2023-03-18T03:17:10;101255.42;;;0.47;58.44
63691;BME280;49837;57.280;27.070;2023-03-18T03:18:10;101256.06;;;0.5;58.59
63691;BME280;49837;57.280;27.070;2023-03-18T03:19:11;101254.61;;;0.47;58.46
63691;BME280;49837;57.280;27.070;2023-03-18T03:20:12;101250.77;;;0.49;57.97
63691;BME280;49837;57.280;27.070;2023-03-18T03:21:12;101253.52;;;0.53;57.65
63691;BME280;49837;57.280;27.070;2023-03-18T03:22:12;101254.58;;;0.5;58.37
63691;BME280;49837;57.280;27.070;2023-03-18T03:23:13;101248.94;;;0.47;58.28
63691;BME280;49837;57.280;27.070;2023-03-18T03:24:12;101255.22;;;0.51;57.91
63691;BME280;49837;57.280;27.070;2023-03-18T03:25:13;101252.98;;;0.53;57.94
63691;BME280;49837;57.280;27.070;2023-03-18T03:26:14;101253.64;;;0.54;57.85
63691;BME280;49837;57.280;27.070;2023-03-18T03:27:14;101256.31;;;0.53;58.04
63691;BME280;49837;57.280;27.070;2023-03-18T03:28:15;101253.91;;;0.51;58.21
63691;BME280;49837;57.280;27.070;2023-03-18T03:29:14;101258.17;;;0.51;58.18
63691;BME280;49837;57.280;27.070;2023-03-18T03:30:15;101248.65;;;0.51;57.76
63691;BME280;49837;57.280;27.070;2023-03-18T03:31:15;101252.87;;;0.53;57.89
63691;BME280;49837;57.280;27.070;2023-03-18T03:32:15;101252.3;;;0.55;57.59
63691;BME280;49837;57.280;27.070;2023-03-18T03:33:15;101247.55;;;0.5;58.05
63691;BME280;49837;57.280;27.070;2023-03-18T03:34:16;101249.0;;;0.5;57.94
63691;BME280;49837;57.280;27.070;2023-03-18T03:35:18;101249.16;;;0.46;58.39
63691;BME280;49837;57.280;27.070;2023-03-18T03:36:17;101245.41;;;0.43;58.43
63691;BME280;49837;57.280;27.070;2023-03-18T03:37:17;101247.76;;;0.47;57.97
63691;BME280;49837;57.280;27.070;2023-03-18T03:38:17;101247.42;;;0.52;58.23
63691;BME280;49837;57.280;27.070;2023-03-18T03:39:18;101249.31;;;0.51;57.96
63691;BME280;49837;57.280;27.070;2023-03-18T03:40:19;101244.45;;;0.57;57.76
63691;BME280;49837;57.280;27.070;2023-03-18T03:41:21;101247.92;;;0.54;58.14
63691;BME280;49837;57.280;27.070;2023-03-18T03:42:19;101243.05;;;0.53;57.91
63691;BME280;49837;57.280;27.070;2023-03-18T03:43:19;101246.98;;;0.54;57.83
63691;BME280;49837;57.280;27.070;2023-03-18T03:44:19;101246.91;;;0.56;57.32
63691;BME280;49837;57.280;27.070;2023-03-18T03:45:20;101244.2;;;0.57;57.58
63691;BME280;49837;57.280;27.070;2023-03-18T03:46:20;101247.38;;;0.55;57.65
63691;BME280;49837;57.280;27.070;2023-03-18T03:47:20;101242.1;;;0.61;56.75
63691;BME280;49837;57.280;27.070;2023-03-18T03:48:21;101247.25;;;0.63;56.91
63691;BME280;49837;57.280;27.070;2023-03-18T03:49:21;101247.7;;;0.56;57.99
63691;BME280;49837;57.280;27.070;2023-03-18T03:50:22;101248.2;;;0.55;57.64
63691;BME280;49837;57.280;27.070;2023-03-18T03:51:22;101249.84;;;0.59;57.58
63691;BME280;49837;57.280;27.070;2023-03-18T03:52:22;101249.31;;;0.55;57.9
63691;BME280;49837;57.280;27.070;2023-03-18T03:53:23;101246.08;;;0.54;57.76
63691;BME280;49837;57.280;27.070;2023-03-18T03:54:23;101252.0;;;0.57;57.63
63691;BME280;49837;57.280;27.070;2023-03-18T03:55:23;101246.98;;;0.54;58.05
63691;BME280;49837;57.280;27.070;2023-03-18T03:56:23;101248.12;;;0.5;58.0
63691;BME280;49837;57.280;27.070;2023-03-18T03:57:24;101250.22;;;0.43;58.68
63691;BME280;49837;57.280;27.070;2023-03-18T03:58:24;101247.91;;;0.43;58.26
63691;BME280;49837;57.280;27.070;2023-03-18T03:59:24;101249.8;;;0.51;57.78
63691;BME280;49837;57.280;27.070;2023-03-18T04:00:25;101248.95;;;0.53;58.23
63691;BME280;49837;57.280;27.070;2023-03-18T04:01:25;101247.72;;;0.54;57.88
63691;BME280;49837;57.280;27.070;2023-03-18T04:02:25;101249.77;;;0.47;58.47
63691;BME280;49837;57.280;27.070;2023-03-18T04:03:26;101252.12;;;0.49;57.53
63691;BME280;49837;57.280;27.070;2023-03-18T04:04:26;101250.0;;;0.55;57.51
63691;BME280;49837;57.280;27.070;2023-03-18T04:05:26;101248.71;;;0.53;57.66
63691;BME280;49837;57.280;27.070;2023-03-18T04:06:27;101250.38;;;0.54;57.51
63691;BME280;49837;57.280;27.070;2023-03-18T04:07:27;101247.95;;;0.56;57.17
63691;BME280;49837;57.280;27.070;2023-03-18T04:08:27;101248.02;;;0.53;57.75
63691;BME280;49837;57.280;27.070;2023-03-18T04:09:28;101251.99;;;0.53;57.82
63691;BME280;49837;57.280;27.070;2023-03-18T04:10:28;101249.22;;;0.48;58.23
63691;BME280;49837;57.280;27.070;2023-03-18T04:11:29;101245.48;;;0.44;58.56
63691;BME280;49837;57.280;27.070;2023-03-18T04:12:29;101245.81;;;0.44;58.43
63691;BME280;49837;57.280;27.070;2023-03-18T04:13:29;101249.42;;;0.44;58.29
63691;BME280;49837;57.280;27.070;2023-03-18T04:14:30;101250.97;;;0.41;58.73
63691;BME280;49837;57.280;27.070;2023-03-18T04:15:30;101251.36;;;0.39;58.61
63691;BME280;49837;57.280;27.070;2023-03-18T04:16:30;101251.53;;;0.43;58.1
63691;BME280;49837;57.280;27.070;2023-03-18T04:17:31;101255.25;;;0.44;57.67
63691;BME280;49837;57.280;27.070;2023-03-18T04:18:31;101248.72;;;0.46;58.53
63691;BME280;49837;57.280;27.070;2023-03-18T04:19:31;101255.99;;;0.44;58.23
63691;BME280;49837;57.280;27.070;2023-03-18T04:20:33;101252.22;;;0.44;58.25
63691;BME280;49837;57.280;27.070;2023-03-18T04:21:32;101250.56;;;0.41;58.31
63691;BME280;49837;57.280;27.070;2023-03-18T04:22:32;101252.53;;;0.4;58.28
63691;BME280;49837;57.280;27.070;2023-03-18T04:23:33;101253.21;;;0.39;58.3
63691;BME280;49837;57.280;27.070;2023-03-18T04:24:33;101259.98;;;0.35;58.43
63691;BME280;49837;57.280;27.070;2023-03-18T04:25:33;101259.14;;;0.37;58.36
63691;BME280;49837;57.280;27.070;2023-03-18T04:26:37;101262.74;;;0.41;58.27
63691;BME280;49837;57.280;27.070;2023-03-18T04:27:34;101264.18;;;0.38;58.56
63691;BME280;49837;57.280;27.070;2023-03-18T04:28:34;101265.83;;;0.41;58.15
63691;BME280;49837;57.280;27.070;2023-03-18T04:29:35;101267.56;;;0.44;58.05
63691;BME280;49837;57.280;27.070;2023-03-18T04:30:35;101270.81;;;0.42;57.75
63691;BME280;49837;57.280;27.070;2023-03-18T04:31:36;101266.73;;;0.41;58.11
63691;BME280;49837;57.280;27.070;2023-03-18T04:32:36;101274.44;;;0.38;58.71
63691;BME280;49837;57.280;27.070;2023-03-18T04:33:36;101268.53;;;0.41;58.21
63691;BME280;49837;57.280;27.070;2023-03-18T04:34:37;101270.21;;;0.42;58.4
63691;BME280;49837;57.280;27.070;2023-03-18T04:35:37;101270.8;;;0.4;58.34
63691;BME280;49837;57.280;27.070;2023-03-18T04:36:37;101275.38;;;0.39;58.04
63691;BME280;49837;57.280;27.070;2023-03-18T04:37:38;101279.41;;;0.42;58.23
63691;BME280;49837;57.280;27.070;2023-03-18T04:38:38;101280.01;;;0.42;57.6
63691;BME280;49837;57.280;27.070;2023-03-18T04:39:39;101280.56;;;0.46;57.86
63691;BME280;49837;57.280;27.070;2023-03-18T04:40:39;101277.61;;;0.46;58.01
63691;BME280;49837;57.280;27.070;2023-03-18T04:41:39;101284.16;;;0.47;58.2
63691;BME280;49837;57.280;27.070;2023-03-18T04:42:39;101278.44;;;0.48;58.27
63691;BME280;49837;57.280;27.070;2023-03-18T04:43:40;101279.08;;;0.45;58.77
63691;BME280;49837;57.280;27.070;2023-03-18T04:44:40;101277.55;;;0.43;58.49
63691;BME280;49837;57.280;27.070;2023-03-18T04:45:40;101278.09;;;0.42;58.34
63691;BME280;49837;57.280;27.070;2023-03-18T04:46:41;101282.36;;;0.42;58.49
63691;BME280;49837;57.280;27.070;2023-03-18T04:47:42;101280.25;;;0.39;58.75
63691;BME280;49837;57.280;27.070;2023-03-18T04:48:41;101281.05;;;0.42;59.09
63691;BME280;49837;57.280;27.070;2023-03-18T04:49:42;101278.67;;;0.45;58.67
63691;BME280;49837;57.280;27.070;2023-03-18T04:50:42;101275.02;;;0.47;58.15
63691;BME280;49837;57.280;27.070;2023-03-18T04:51:42;101275.71;;;0.5;57.88
63691;BME280;49837;57.280;27.070;2023-03-18T04:52:43;101282.72;;;0.52;58.39
63691;BME280;49837;57.280;27.070;2023-03-18T04:53:43;101281.46;;;0.54;58.15
63691;BME280;49837;57.280;27.070;2023-03-18T04:54:43;101281.29;;;0.58;58.29
63691;BME280;49837;57.280;27.070;2023-03-18T04:55:44;101285.29;;;0.61;58.23
63691;BME280;49837;57.280;27.070;2023-03-18T04:56:44;101286.63;;;0.62;58.23
63691;BME280;49837;57.280;27.070;2023-03-18T04:57:44;101284.6;;;0.59;58.03
63691;BME280;49837;57.280;27.070;2023-03-18T04:58:45;101285.45;;;0.61;57.99
63691;BME280;49837;57.280;27.070;2023-03-18T04:59:45;101287.18;;;0.61;58.83
63691;BME280;49837;57.280;27.070;2023-03-18T05:00:45;101287.34;;;0.61;58.13
63691;BME280;49837;57.280;27.070;2023-03-18T05:01:46;101278.06;;;0.61;58.7
63691;BME280;49837;57.280;27.070;2023-03-18T05:02:46;101283.75;;;0.59;58.58
63691;BME280;49837;57.280;27.070;2023-03-18T05:03:46;101281.52;;;0.61;58.72
63691;BME280;49837;57.280;27.070;2023-03-18T05:04:47;101281.0;;;0.63;58.39
63691;BME280;49837;57.280;27.070;2023-03-18T05:05:47;101281.7;;;0.62;58.98
63691;BME280;49837;57.280;27.070;2023-03-18T05:06:48;101281.27;;;0.61;58.75
63691;BME280;49837;57.280;27.070;2023-03-18T05:07:48;101274.89;;;0.62;59.26
63691;BME280;49837;57.280;27.070;2023-03-18T05:08:48;101273.78;;;0.58;59.37
63691;BME280;49837;57.280;27.070;2023-03-18T05:09:48;101273.31;;;0.55;59.22
63691;BME280;49837;57.280;27.070;2023-03-18T05:10:49;101270.98;;;0.54;58.51
63691;BME280;49837;57.280;27.070;2023-03-18T05:11:49;101269.58;;;0.6;58.58
63691;BME280;49837;57.280;27.070;2023-03-18T05:12:50;101271.52;;;0.59;58.35
63691;BME280;49837;57.280;27.070;2023-03-18T05:13:50;101273.34;;;0.65;58.25
63691;BME280;49837;57.280;27.070;2023-03-18T05:14:51;101274.8;;;0.7;58.75
63691;BME280;49837;57.280;27.070;2023-03-18T05:15:50;101270.09;;;0.66;57.87
63691;BME280;49837;57.280;27.070;2023-03-18T05:16:51;101269.23;;;0.62;57.99
63691;BME280;49837;57.280;27.070;2023-03-18T05:17:51;101269.94;;;0.61;58.74
63691;BME280;49837;57.280;27.070;2023-03-18T05:18:52;101273.45;;;0.63;58.56
63691;BME280;49837;57.280;27.070;2023-03-18T05:19:52;101266.42;;;0.67;57.43
63691;BME280;49837;57.280;27.070;2023-03-18T05:20:52;101270.02;;;0.64;57.99
63691;BME280;49837;57.280;27.070;2023-03-18T05:21:53;101270.2;;;0.68;58.12
63691;BME280;49837;57.280;27.070;2023-03-18T05:22:53;101266.33;;;0.76;57.7
63691;BME280;49837;57.280;27.070;2023-03-18T05:23:55;101266.8;;;0.81;57.74
63691;BME280;49837;57.280;27.070;2023-03-18T05:24:55;101269.23;;;0.8;57.47
63691;BME280;49837;57.280;27.070;2023-03-18T05:25:54;101272.68;;;0.76;57.49
63691;BME280;49837;57.280;27.070;2023-03-18T05:26:54;101274.05;;;0.79;57.5
63691;BME280;49837;57.280;27.070;2023-03-18T05:27:55;101270.52;;;0.83;57.75
63691;BME280;49837;57.280;27.070;2023-03-18T05:28:55;101269.08;;;0.86;58.04
63691;BME280;49837;57.280;27.070;2023-03-18T05:29:55;101274.64;;;0.85;57.77